Time;durP1;ratioP1;P1;durP2;ratioP2;P2;SDS_P1;SDS_P2;PMS_P1;PMS_P2;Temp;Humidity;BMP_temperature;BMP_pressure;BME280_temperature;BME280_humidity;BME280_pressure;Samples;Min_cycle;Max_cycle;Signal;HPM_P1;HPM_P2
2022/02/14 00:00:41;;;;;;;5.00;1.90;;;;;;;3.67;29.96;99521.31;5062747;28;20059;-65
2022/02/14 00:03:07;;;;;;;5.40;1.97;;;;;;;3.57;29.87;99520.38;5062821;28;20085;-65
2022/02/14 00:05:33;;;;;;;3.07;2.23;;;;;;;3.44;29.96;99521.25;5079393;28;20096;-65
2022/02/14 00:08:00;;;;;;;4.60;1.70;;;;;;;3.24;30.52;99508.00;5062519;28;20619;-66
2022/02/14 00:10:26;;;;;;;5.07;2.10;;;;;;;3.14;30.33;99520.97;5079324;28;20042;-65
2022/02/14 00:12:52;;;;;;;4.10;1.90;;;;;;;3.57;30.18;99523.81;5079512;28;20039;-66
2022/02/14 00:15:18;;;;;;;5.27;1.80;;;;;;;3.67;30.09;99516.06;5046063;28;20475;-65
2022/02/14 00:17:44;;;;;;;3.83;1.80;;;;;;;3.73;30.39;99526.94;5046092;28;20502;-65
2022/02/14 00:20:11;;;;;;;4.43;2.40;;;;;;;3.20;31.01;99527.53;5062555;28;20044;-65
2022/02/14 00:22:38;;;;;;;4.13;1.97;;;;;;;3.47;30.92;99512.34;5046317;28;20134;-66
2022/02/14 00:25:05;;;;;;;3.90;2.30;;;;;;;2.99;30.85;99419.81;5114756;28;20039;-65
2022/02/14 00:27:31;;;;;;;2.80;1.80;;;;;;;3.48;30.95;99506.13;5062582;28;20105;-65
2022/02/14 00:29:57;;;;;;;3.87;1.87;;;;;;;3.36;30.83;99494.78;5045815;28;20907;-66
2022/02/14 00:32:23;;;;;;;4.27;2.00;;;;;;;3.55;31.06;99506.50;5062549;28;20082;-65
2022/02/14 00:34:50;;;;;;;3.13;1.80;;;;;;;3.46;30.77;99493.13;5045622;28;20044;-65
2022/02/14 00:37:16;;;;;;;5.07;1.97;;;;;;;3.51;30.77;99497.19;5079058;28;20100;-65
2022/02/14 00:39:43;;;;;;;4.00;1.90;;;;;;;3.28;31.41;99499.78;5078962;28;20047;-65
2022/02/14 00:42:08;;;;;;;4.03;1.93;;;;;;;3.30;31.37;99491.78;5062188;28;20077;-66
2022/02/14 00:44:34;;;;;;;2.50;1.70;;;;;;;3.33;31.09;99484.53;5079020;28;20047;-65
2022/02/14 00:47:00;;;;;;;5.50;2.00;;;;;;;3.27;31.39;99487.63;5078486;28;20054;-65
2022/02/14 00:49:26;;;;;;;3.13;1.77;;;;;;;3.26;31.28;99506.91;5061769;28;20035;-65
2022/02/14 00:51:52;;;;;;;4.40;1.70;;;;;;;3.19;31.64;99497.84;5061640;28;20047;-64
2022/02/14 00:54:18;;;;;;;2.33;1.87;;;;;;;3.40;31.51;99496.22;5045103;28;20475;-65
2022/02/14 00:56:44;;;;;;;3.60;1.93;;;;;;;3.31;31.41;99488.19;5078438;28;20097;-65
2022/02/14 00:59:09;;;;;;;3.67;1.93;;;;;;;3.15;31.73;99490.31;5061618;28;20044;-66
2022/02/14 01:01:35;;;;;;;5.83;2.37;;;;;;;3.21;31.82;99482.81;5045281;28;20055;-64
2022/02/14 01:04:01;;;;;;;7.43;1.87;;;;;;;3.15;31.81;99493.75;5061370;28;20445;-65
2022/02/14 01:06:27;;;;;;;3.53;1.97;;;;;;;3.09;31.94;99493.41;5078392;28;20047;-65
2022/02/14 01:08:53;;;;;;;3.23;1.90;;;;;;;3.14;32.74;99491.25;5061403;28;20344;-65
2022/02/14 01:11:20;;;;;;;1.97;1.43;;;;;;;3.23;32.16;99477.44;5061573;28;20504;-64
2022/02/14 01:13:46;;;;;;;3.00;1.80;;;;;;;3.11;32.26;99471.34;5094642;28;20047;-65
2022/02/14 01:16:12;;;;;;;4.63;1.80;;;;;;;3.04;32.10;99443.91;5092710;28;20059;-65
2022/02/14 01:18:38;;;;;;;3.63;2.00;;;;;;;3.04;32.61;99459.66;5059510;28;20040;-68
2022/02/14 01:21:04;;;;;;;3.43;1.90;;;;;;;3.09;32.87;99472.41;5058745;28;20533;-66
2022/02/14 01:23:30;;;;;;;3.67;1.90;;;;;;;3.22;32.59;99455.63;5059628;28;20062;-67
2022/02/14 01:25:56;;;;;;;3.93;2.00;;;;;;;3.28;32.41;99446.44;5059811;28;20047;-66
2022/02/14 01:28:21;;;;;;;6.03;2.20;;;;;;;3.18;32.61;99455.97;5075761;28;20047;-66
2022/02/14 01:30:47;;;;;;;3.00;2.10;;;;;;;3.35;32.33;99458.97;5059486;28;20055;-67
2022/02/14 01:33:13;;;;;;;3.07;1.93;;;;;;;3.21;32.43;99450.50;5060927;28;20055;-65
2022/02/14 01:35:39;;;;;;;3.20;1.70;;;;;;;3.00;33.33;99452.94;5061197;28;20054;-66
2022/02/14 01:38:06;;;;;;;4.43;1.80;;;;;;;3.27;32.78;99450.03;5061222;28;20044;-66
2022/02/14 01:40:32;;;;;;;3.80;2.10;;;;;;;3.20;33.12;99425.19;5060941;28;20039;-66
2022/02/14 01:42:58;;;;;;;5.17;1.90;;;;;;;3.32;32.58;99437.41;5077498;28;20040;-66
2022/02/14 01:45:24;;;;;;;2.37;1.60;;;;;;;3.23;33.11;99440.69;5060901;28;20050;-65
2022/02/14 01:47:50;;;;;;;4.67;1.77;;;;;;;3.19;33.35;99440.13;5059486;28;20146;-66
2022/02/14 01:50:17;;;;;;;5.20;1.80;;;;;;;3.26;33.39;99432.59;5076165;28;20543;-66
2022/02/14 01:52:43;;;;;;;5.13;2.00;;;;;;;3.17;33.33;99443.78;5075847;28;20126;-66
2022/02/14 01:55:11;;;;;;;3.40;1.80;;;;;;;3.02;33.58;99397.75;5059661;28;20039;-66
2022/02/14 01:57:37;;;;;;;5.07;1.80;;;;;;;3.19;33.55;99442.75;5076754;28;20442;-66
2022/02/14 02:00:10;;;;;;;3.77;2.33;;;;;;;3.26;33.84;99428.19;5043084;28;20043;-66
2022/02/14 02:02:39;;;;;;;4.27;1.80;;;;;;;3.21;33.94;99440.00;5094583;28;20039;-65
2022/02/14 02:05:06;;;;;;;5.60;1.90;;;;;;;3.34;33.61;99430.22;5076923;28;20059;-65
2022/02/14 02:07:32;;;;;;;3.47;2.13;;;;;;;2.89;33.96;99431.91;5077334;28;20040;-65
2022/02/14 02:09:58;;;;;;;4.90;2.07;;;;;;;3.20;33.66;99422.56;5060284;28;20047;-66
2022/02/14 02:12:25;;;;;;;4.17;2.30;;;;;;;3.10;33.84;99432.94;5043595;28;20047;-66
2022/02/14 02:15:02;;;;;;;3.83;1.67;;;;;;;3.13;34.01;99405.63;5076814;28;20043;-67
2022/02/14 02:17:35;;;;;;;2.50;1.73;;;;;;;3.08;34.12;99400.75;5061757;28;20432;-66
2022/02/14 02:20:01;;;;;;;;;;;;;;;3.51;33.41;99400.88;5076692;28;20047;-66
2022/02/14 02:22:28;;;;;;;2.87;1.77;;;;;;;2.88;34.13;99411.06;5077078;28;19915;-66
2022/02/14 02:24:56;;;;;;;4.27;1.93;;;;;;;3.21;34.32;99404.06;5043341;28;20039;-66
2022/02/14 02:27:25;;;;;;;3.20;2.07;;;;;;;3.28;33.81;99414.94;5043404;28;20040;-66
2022/02/14 02:29:59;;;;;;;5.43;2.17;;;;;;;3.44;33.99;99405.75;5093758;28;20039;-66
2022/02/14 02:32:29;;;;;;;3.93;2.00;;;;;;;3.36;34.15;99389.81;5060144;28;20039;-66
2022/02/14 02:34:55;;;;;;;5.20;2.33;;;;;;;3.00;34.43;99392.59;5111587;28;20047;-65
2022/02/14 02:37:21;;;;;;;5.47;2.00;;;;;;;2.75;34.53;99392.78;5076412;28;20035;-65
2022/02/14 02:39:47;;;;;;;4.83;2.10;;;;;;;2.92;35.06;99402.84;5059857;28;20503;-65
2022/02/14 02:42:14;;;;;;;4.23;2.03;;;;;;;3.17;34.52;99394.78;5111911;28;20507;-66
2022/02/14 02:44:41;;;;;;;3.20;1.73;;;;;;;2.92;34.61;99358.25;5060401;28;20108;-65
2022/02/14 02:47:10;;;;;;;3.57;1.87;;;;;;;3.17;34.90;99397.41;5076133;28;20065;-66
2022/02/14 02:49:36;;;;;;;4.53;1.90;;;;;;;2.86;34.88;99381.50;5059599;28;20134;-66
2022/02/14 02:52:04;;;;;;;5.83;2.17;;;;;;;3.09;34.93;99383.22;5059443;28;20048;-65
2022/02/14 02:54:30;;;;;;;3.90;1.87;;;;;;;2.80;35.14;99385.41;5075558;28;20043;-66
2022/02/14 02:56:56;;;;;;;4.87;2.37;;;;;;;2.90;35.30;99391.66;5074263;28;20051;-66
2022/02/14 02:59:25;;;;;;;5.83;2.17;;;;;;;3.06;35.30;99381.66;5040760;28;20054;-66
2022/02/14 03:01:52;;;;;;;2.73;1.60;;;;;;;2.94;35.52;99382.59;5051575;28;20065;-68
2022/02/14 03:04:18;;;;;;;3.60;1.83;;;;;;;2.89;35.38;99395.22;5055412;28;20117;-66
2022/02/14 03:06:44;;;;;;;3.83;2.17;;;;;;;2.82;35.37;99382.69;5089639;28;20039;-67
2022/02/14 03:09:11;;;;;;;3.47;2.10;;;;;;;2.96;35.28;99393.81;5056970;28;20073;-66
2022/02/14 03:11:38;;;;;;;5.03;2.23;;;;;;;3.06;35.31;99392.13;5089197;28;20078;-64
2022/02/14 03:14:04;;;;;;;4.27;1.80;;;;;;;3.06;35.33;99371.16;5074072;28;20092;-64
2022/02/14 03:16:30;;;;;;;2.73;2.00;;;;;;;2.67;35.43;99407.44;5074321;28;20069;-66
2022/02/14 03:18:56;;;;;;;3.57;2.00;;;;;;;2.82;36.21;99375.66;5074552;28;20453;-66
2022/02/14 03:21:22;;;;;;;2.37;1.60;;;;;;;2.82;36.04;99374.81;5091012;28;20130;-66
2022/02/14 03:23:52;;;;;;;2.67;2.00;;;;;;;3.07;35.69;99370.22;5075395;28;20043;-66
2022/02/14 03:26:21;;;;;;;3.37;1.97;;;;;;;3.26;35.74;99367.81;5058485;28;20043;-66
2022/02/14 03:28:49;;;;;;;2.90;1.83;;;;;;;3.29;35.73;99351.84;5057208;28;20051;-66
2022/02/14 03:31:15;;;;;;;3.67;2.10;;;;;;;3.22;35.62;99319.19;5090447;28;20084;-67
2022/02/14 03:33:43;;;;;;;2.73;1.80;;;;;;;3.38;35.15;99345.88;5074139;28;20156;-67
2022/02/14 03:36:10;;;;;;;5.53;2.10;;;;;;;3.71;34.87;99344.16;5073987;28;20039;-70
2022/02/14 03:38:36;;;;;;;3.27;1.90;;;;;;;3.63;34.63;99354.47;5091221;28;20491;-66
2022/02/14 03:41:02;;;;;;;3.60;2.00;;;;;;;3.59;34.48;99350.38;5074064;28;20031;-66
2022/02/14 03:43:28;;;;;;;2.53;2.07;;;;;;;3.46;34.84;99355.78;5090238;28;20046;-68
2022/02/14 03:45:54;;;;;;;3.30;2.30;;;;;;;3.26;35.66;99357.34;5052622;28;20425;-66
2022/02/14 03:48:23;;;;;;;6.00;2.07;;;;;;;3.16;35.29;99329.31;5071149;28;20051;-69
2022/02/14 03:50:50;;;;;;;7.87;2.30;;;;;;;3.52;35.09;99329.06;5088309;28;20699;-66
2022/02/14 03:53:16;;;;;;;4.17;2.23;;;;;;;3.40;34.99;99349.22;5071734;28;20049;-67
2022/02/14 03:55:42;;;;;;;3.70;2.37;;;;;;;3.17;35.48;99363.28;5054345;28;20134;-65
2022/02/14 03:58:07;;;;;;;2.97;1.93;;;;;;;3.22;35.38;99361.16;5070158;28;20613;-68
2022/02/14 04:00:33;;;;;;;5.80;2.30;;;;;;;3.34;35.00;99338.38;5089479;28;20047;-65
2022/02/14 04:02:59;;;;;;;4.50;1.80;;;;;;;3.53;35.01;99346.47;5057018;28;20426;-68
2022/02/14 04:05:25;;;;;;;6.00;2.30;;;;;;;3.47;34.97;99379.28;5056376;28;20060;-66
2022/02/14 04:07:51;;;;;;;2.77;2.00;;;;;;;3.22;34.98;99334.91;5056640;28;20039;-65
2022/02/14 04:10:17;;;;;;;6.33;2.30;;;;;;;3.50;35.20;99359.84;5073411;28;20035;-66
2022/02/14 04:12:43;;;;;;;4.97;2.03;;;;;;;3.08;35.37;99335.16;5089918;28;20039;-65
2022/02/14 04:15:11;;;;;;;3.50;2.00;;;;;;;3.34;35.64;99370.69;5072924;28;20047;-65
2022/02/14 04:17:37;;;;;;;3.80;2.10;;;;;;;3.44;35.54;99357.69;5056204;28;20444;-66
2022/02/14 04:20:03;;;;;;;3.93;2.10;;;;;;;3.38;35.79;99366.06;5056637;28;20044;-65
2022/02/14 04:22:29;;;;;;;4.50;2.00;;;;;;;3.21;35.51;99333.22;5073478;28;20192;-66
2022/02/14 04:24:55;;;;;;;4.73;2.30;;;;;;;3.22;35.58;99366.41;5056375;28;20046;-65
2022/02/14 04:27:21;;;;;;;4.57;2.13;;;;;;;3.17;35.85;99358.03;5055886;28;20084;-65
2022/02/14 04:29:47;;;;;;;3.07;1.73;;;;;;;3.23;35.82;99364.59;5057581;28;20059;-67
2022/02/14 04:32:13;;;;;;;5.83;2.10;;;;;;;3.40;35.61;99364.97;5074844;28;20400;-64
2022/02/14 04:34:39;;;;;;;4.57;2.40;;;;;;;3.15;35.99;99361.75;5073127;28;20032;-65
2022/02/14 04:37:04;;;;;;;3.73;1.80;;;;;;;3.16;36.08;99364.25;5090207;28;20108;-64
2022/02/14 04:39:30;;;;;;;4.37;2.00;;;;;;;3.05;36.27;99350.28;5089991;28;20058;-65
2022/02/14 04:41:56;;;;;;;5.10;1.97;;;;;;;3.04;36.41;99359.13;5073746;28;20134;-68
2022/02/14 04:44:22;;;;;;;2.90;1.90;;;;;;;2.43;36.82;99307.06;5093680;28;20502;-70
2022/02/14 04:46:48;;;;;;;3.43;2.10;;;;;;;2.32;37.25;99310.44;5060183;28;20043;-72
2022/02/14 04:49:17;;;;;;;5.57;2.07;;;;;;;2.68;37.42;99348.78;5077235;28;20043;-67
2022/02/14 04:51:43;;;;;;;4.13;1.90;;;;;;;2.67;37.44;99347.13;5076968;28;20446;-68
2022/02/14 04:54:09;;;;;;;3.40;2.13;;;;;;;2.32;37.20;99302.59;5076545;28;20031;-68
2022/02/14 04:56:38;;;;;;;3.77;2.10;;;;;;;2.74;37.54;99337.84;5042574;28;20412;-70
2022/02/14 04:59:04;;;;;;;4.67;2.10;;;;;;;1.97;38.29;99295.69;5092328;28;20074;-67
2022/02/14 05:01:30;;;;;;;4.60;2.27;;;;;;;2.46;38.22;99336.47;5091061;28;20048;-68
2022/02/14 05:03:56;;;;;;;5.20;2.10;;;;;;;2.47;38.11;99332.06;5057336;28;20126;-68
2022/02/14 05:06:22;;;;;;;10.77;3.83;;;;;;;2.08;38.50;99328.00;5041321;28;20043;-69
2022/02/14 05:08:48;;;;;;;3.53;2.33;;;;;;;2.45;38.02;99313.84;5091055;28;20134;-73
2022/02/14 05:11:14;;;;;;;8.60;2.27;;;;;;;2.52;38.25;99336.00;5075732;28;20559;-67
2022/02/14 05:13:41;;;;;;;5.17;2.10;;;;;;;2.49;38.20;99333.59;5059069;28;20044;-67
2022/02/14 05:16:10;;;;;;;3.37;1.93;;;;;;;2.74;38.27;99316.84;5076286;28;20514;-70
2022/02/14 05:18:36;;;;;;;9.80;2.13;;;;;;;2.26;38.46;99341.53;5076833;28;20107;-67
2022/02/14 05:21:03;;;;;;;6.00;2.07;;;;;;;2.52;38.43;99320.28;5059679;28;20440;-68
2022/02/14 05:23:29;;;;;;;5.10;2.10;;;;;;;2.45;38.41;99297.25;5060186;28;20118;-70
2022/02/14 05:25:55;;;;;;;5.30;2.10;;;;;;;2.45;38.33;99319.06;5060307;28;20053;-69
2022/02/14 05:28:21;;;;;;;4.07;2.20;;;;;;;2.33;38.56;99319.16;5060658;28;20043;-70
2022/02/14 05:30:47;;;;;;;7.33;2.73;;;;;;;2.41;38.54;99319.41;5077195;28;20047;-69
2022/02/14 05:33:13;;;;;;;3.83;2.13;;;;;;;2.42;38.79;99318.47;5077025;28;20162;-68
2022/02/14 05:35:40;;;;;;;4.63;2.53;;;;;;;2.84;38.01;99328.34;5076572;28;20703;-68
2022/02/14 05:38:08;;;;;;;5.77;2.43;;;;;;;2.96;38.08;99324.75;5076654;28;20446;-69
2022/02/14 05:40:34;;;;;;;3.40;1.90;;;;;;;2.52;38.77;99338.63;5076643;28;20123;-69
2022/02/14 05:43:00;;;;;;;7.30;2.20;;;;;;;2.71;38.48;99333.66;5059479;28;20138;-68
2022/02/14 05:45:26;;;;;;;6.70;2.73;;;;;;;2.95;38.07;99350.16;5039048;28;20453;-68
2022/02/14 05:47:52;;;;;;;47.70;19.20;;;;;;;2.56;38.20;99306.00;5041487;28;20042;-70
2022/02/14 05:50:18;;;;;;;5.67;2.43;;;;;;;2.40;38.61;99341.34;5075559;28;20485;-73
2022/02/14 05:52:44;;;;;;;3.47;2.23;;;;;;;2.68;38.50;99349.63;5059518;28;20112;-69
2022/02/14 05:55:10;;;;;;;8.37;2.30;;;;;;;2.95;38.18;99326.53;5058831;28;20044;-69
2022/02/14 05:57:38;;;;;;;5.37;2.20;;;;;;;3.19;37.91;99342.19;5075621;28;20063;-68
2022/02/14 06:00:05;;;;;;;3.27;2.30;;;;;;;2.86;38.97;99332.50;5076626;28;20126;-68
2022/02/14 06:02:31;;;;;;;5.07;1.90;;;;;;;2.69;38.90;99342.63;5092574;28;20073;-68
2022/02/14 06:04:57;;;;;;;6.27;2.50;;;;;;;2.25;39.68;99351.16;5059151;28;20101;-68
2022/02/14 06:07:23;;;;;;;3.13;2.00;;;;;;;2.83;38.95;99314.38;5058836;28;20475;-68
2022/02/14 06:09:49;;;;;;;4.23;2.30;;;;;;;2.92;38.60;99329.41;5059156;28;20040;-69
2022/02/14 06:12:15;;;;;;;7.60;2.43;;;;;;;2.77;38.96;99324.50;5058398;28;20632;-68
2022/02/14 06:14:41;;;;;;;6.87;2.27;;;;;;;2.85;38.99;99341.31;5059190;28;20047;-69
2022/02/14 06:17:07;;;;;;;3.07;2.27;;;;;;;2.90;38.79;99349.69;5042157;28;20040;-68
2022/02/14 06:19:32;;;;;;;5.43;2.27;;;;;;;3.19;38.60;99316.78;5075487;28;20120;-72
2022/02/14 06:21:58;;;;;;;5.93;2.70;;;;;;;3.40;38.19;99336.09;5092139;28;20503;-72
2022/02/14 06:24:24;;;;;;;5.73;2.70;;;;;;;3.46;38.11;99340.03;5075485;28;20039;-71
2022/02/14 06:26:50;;;;;;;4.27;2.40;;;;;;;3.64;37.40;99335.97;5058881;28;20061;-71
2022/02/14 06:29:16;;;;;;;5.17;2.60;;;;;;;3.52;37.34;99304.59;5092418;28;20047;-70
2022/02/14 06:31:41;;;;;;;4.17;2.23;;;;;;;3.57;37.59;99336.56;5074529;28;20036;-69
2022/02/14 06:34:07;;;;;;;3.40;2.30;;;;;;;3.36;37.81;99339.09;5075103;28;20629;-71
2022/02/14 06:36:33;;;;;;;7.50;3.00;;;;;;;3.58;38.08;99348.72;5092351;28;20116;-71
2022/02/14 06:39:00;;;;;;;5.50;2.73;;;;;;;3.62;38.08;99350.16;5075369;28;20071;-71
2022/02/14 06:41:26;;;;;;;4.47;2.70;;;;;;;3.33;38.65;99357.69;5091448;28;20047;-70
2022/02/14 06:43:54;;;;;;;4.77;2.70;;;;;;;3.91;37.76;99351.28;5054815;28;20071;-72
2022/02/14 06:46:20;;;;;;;3.13;2.43;;;;;;;3.56;38.12;99353.25;5071556;28;20075;-73
2022/02/14 06:48:49;;;;;;;7.20;3.03;;;;;;;3.32;38.98;99337.66;5072710;28;20048;-72
2022/02/14 06:51:17;;;;;;;6.13;2.67;;;;;;;3.82;38.27;99337.09;5054284;28;20047;-69
2022/02/14 06:53:44;;;;;;;8.50;2.53;;;;;;;3.99;37.59;99360.22;5059496;28;20134;-70
2022/02/14 06:56:11;;;;;;;4.87;2.70;;;;;;;3.60;37.89;99307.44;5057814;28;20505;-69
2022/02/14 06:58:38;;;;;;;4.20;2.40;;;;;;;4.06;38.07;99339.56;5041173;28;20039;-69
2022/02/14 07:01:04;;;;;;;5.77;2.73;;;;;;;4.20;37.48;99342.72;5041377;28;20038;-67
2022/02/14 07:03:30;;;;;;;4.80;2.73;;;;;;;4.20;37.45;99332.22;5024820;28;20040;-69
2022/02/14 07:05:57;;;;;;;4.77;2.60;;;;;;;4.54;36.85;99338.13;5057291;28;20473;-71
2022/02/14 07:08:23;;;;;;;3.80;2.77;;;;;;;4.42;36.64;99307.63;5028976;28;20040;-68
2022/02/14 07:10:49;;;;;;;3.90;2.30;;;;;;;4.14;37.61;99329.22;5053926;28;20046;-70
2022/02/14 07:13:15;;;;;;;5.00;2.37;;;;;;;4.16;37.22;99335.22;5036413;28;20739;-69
2022/02/14 07:15:44;;;;;;;10.53;3.30;;;;;;;4.22;37.52;99347.84;5038197;28;20040;-68
2022/02/14 07:18:12;;;;;;;8.40;4.47;;;;;;;4.72;36.47;99313.75;5070622;28;20047;-69
2022/02/14 07:20:38;;;;;;;3.30;2.50;;;;;;;6.10;34.57;99358.69;5054169;28;20044;-68
2022/02/14 07:23:04;;;;;;;4.37;2.60;;;;;;;7.36;32.26;99339.91;5054335;28;20044;-68
2022/02/14 07:25:30;;;;;;;5.78;2.70;;;;;;;9.45;29.02;99356.81;5037240;28;20138;-70
2022/02/14 07:27:55;;;;;;;3.30;2.28;;;;;;;11.64;25.77;99337.31;5037340;28;20126;-70
2022/02/14 07:30:22;;;;;;;5.93;2.55;;;;;;;13.17;23.44;99347.81;5071122;28;20135;-69
2022/02/14 07:32:48;;;;;;;4.93;2.53;;;;;;;14.54;21.98;99343.44;5054175;28;20044;-69
2022/02/14 07:35:14;;;;;;;4.18;2.40;;;;;;;14.79;21.34;99326.00;5021889;28;20519;-70
2022/02/14 07:37:42;;;;;;;7.38;2.72;;;;;;;14.84;20.92;99316.38;5054266;28;20090;-69
2022/02/14 07:40:09;;;;;;;5.15;2.53;;;;;;;14.71;21.06;99329.66;5053579;28;21069;-69
2022/02/14 07:42:35;;;;;;;5.68;2.50;;;;;;;14.53;21.34;99320.44;5070718;28;20123;-70
2022/02/14 07:45:04;;;;;;;4.72;2.47;;;;;;;13.37;21.76;99332.94;5037437;28;20043;-70
2022/02/14 07:47:30;;;;;;;3.53;2.45;;;;;;;10.88;24.88;99322.00;5055951;28;20071;-70
2022/02/14 07:49:56;;;;;;;4.25;2.70;;;;;;;11.40;24.23;99325.88;5073432;28;20121;-70
2022/02/14 07:52:22;;;;;;;4.25;2.45;;;;;;;12.38;23.99;99333.28;5057358;28;20485;-70
2022/02/14 07:54:49;;;;;;;9.57;3.08;;;;;;;13.72;22.46;99341.19;5057330;28;20043;-73
2022/02/14 07:57:17;;;;;;;7.85;3.05;;;;;;;13.30;21.99;99325.81;5057701;28;20039;-70
2022/02/14 07:59:43;;;;;;;5.80;2.95;;;;;;;13.92;22.01;99336.94;5073406;28;20047;-69
2022/02/14 08:02:09;;;;;;;5.65;2.60;;;;;;;14.29;21.40;99342.97;5035852;28;20430;-73
2022/02/14 08:04:35;;;;;;;7.43;2.63;;;;;;;14.60;20.92;99332.84;5065971;28;20430;-70
2022/02/14 08:07:04;;;;;;;3.42;2.78;;;;;;;14.61;20.99;99321.09;5089573;28;20047;-70
2022/02/14 08:09:30;;;;;;;5.13;2.72;;;;;;;14.90;20.89;99328.16;5057337;28;20044;-70
2022/02/14 08:11:56;;;;;;;6.07;2.67;;;;;;;15.55;19.94;99320.63;5056374;28;20487;-70
2022/02/14 08:14:23;;;;;;;4.88;2.95;;;;;;;15.70;19.53;99307.13;5072550;28;20150;-71
2022/02/14 08:16:49;;;;;;;5.82;3.38;;;;;;;15.03;19.50;99339.81;5073744;28;20051;-72
2022/02/14 08:19:15;;;;;;;6.38;2.92;;;;;;;13.55;22.06;99324.56;5094576;28;20109;-71
2022/02/14 08:21:41;;;;;;;4.15;3.00;;;;;;;12.85;22.51;99334.75;5044262;28;20051;-70
2022/02/14 08:24:07;;;;;;;7.15;3.05;;;;;;;11.37;24.53;99310.28;5043657;28;20810;-72
2022/02/14 08:26:33;;;;;;;6.10;3.22;;;;;;;11.05;25.12;99291.75;5094474;28;20043;-71
2022/02/14 08:29:01;;;;;;;4.95;2.83;;;;;;;12.90;23.38;99327.00;5076893;28;20566;-71
2022/02/14 08:31:28;;;;;;;7.50;3.13;;;;;;;11.85;23.97;99342.88;5060314;28;20039;-71
2022/02/14 08:33:57;;;;;;;8.38;3.38;;;;;;;12.46;23.88;99333.19;5060200;28;20043;-70
2022/02/14 08:36:27;;;;;;;7.57;3.17;;;;;;;12.86;23.68;99340.88;5093302;28;20047;-70
2022/02/14 08:38:54;;;;;;;5.63;3.47;;;;;;;11.67;24.30;99336.97;5060654;28;20313;-70
2022/02/14 08:41:20;;;;;;;4.03;3.03;;;;;;;12.88;23.31;99329.06;5076802;28;20411;-70
2022/02/14 08:43:49;;;;;;;6.30;3.25;;;;;;;14.23;21.77;99322.34;5060247;28;20510;-71
2022/02/14 08:46:20;;;;;;;5.13;3.20;;;;;;;13.44;22.37;99341.00;5094625;28;20050;-70
2022/02/14 08:48:55;;;;;;;5.80;3.13;;;;;;;13.54;22.91;99329.06;5094345;28;20610;-70
2022/02/14 08:51:21;;;;;;;6.22;3.45;;;;;;;14.22;21.91;99326.00;5076568;28;20055;-71
2022/02/14 08:53:49;;;;;;;9.48;4.85;;;;;;;14.09;21.51;99336.56;5077648;28;20144;-70
2022/02/14 08:56:15;;;;;;;6.88;3.40;;;;;;;12.78;23.17;99307.13;5061241;28;20051;-71
2022/02/14 08:58:42;;;;;;;5.07;3.15;;;;;;;12.79;23.28;99329.28;5077257;28;20036;-71
2022/02/14 09:01:08;;;;;;;7.82;3.80;;;;;;;12.44;23.57;99341.38;5077379;28;20469;-71
2022/02/14 09:03:35;;;;;;;8.20;4.18;;;;;;;12.02;23.94;99332.16;5076459;28;20047;-71
2022/02/14 09:06:01;;;;;;;6.35;3.63;;;;;;;10.94;25.76;99326.63;5093195;28;20073;-72
2022/02/14 09:08:27;;;;;;;6.70;3.67;;;;;;;11.30;25.01;99314.63;5060010;28;20089;-71
2022/02/14 09:10:56;;;;;;;8.10;3.80;;;;;;;10.63;26.49;99336.28;5076561;28;20128;-71
2022/02/14 09:13:22;;;;;;;5.60;3.47;;;;;;;11.01;25.78;99301.88;5075986;28;20039;-72
2022/02/14 09:15:48;;;;;;;4.70;3.25;;;;;;;11.96;25.20;99320.38;5076500;28;20112;-71
2022/02/14 09:18:15;;;;;;;5.20;3.20;;;;;;;12.98;23.67;99337.63;5060141;28;20086;-71
2022/02/14 09:20:41;;;;;;;4.95;3.30;;;;;;;13.85;22.51;99312.84;5059541;28;20044;-72
2022/02/14 09:23:07;;;;;;;7.30;3.85;;;;;;;12.48;23.39;99329.38;5042788;28;20040;-72
2022/02/14 09:25:33;;;;;;;7.55;3.83;;;;;;;13.55;22.62;99327.22;5110732;28;20046;-72
2022/02/14 09:28:01;;;;;;;5.38;3.10;;;;;;;14.62;21.48;99328.09;5059562;28;20040;-73
2022/02/14 09:30:27;;;;;;;5.38;3.88;;;;;;;16.02;20.09;99331.34;5075448;28;20039;-72
2022/02/14 09:32:53;;;;;;;5.10;3.67;;;;;;;16.80;19.12;99347.69;5042432;28;20138;-73
2022/02/14 09:35:28;;;;;;;5.80;3.53;;;;;;;16.72;18.92;99318.41;5057497;28;20051;-73
2022/02/14 09:37:59;;;;;;;5.18;3.53;;;;;;;17.47;18.42;99323.34;5075522;28;20114;-72
2022/02/14 09:40:26;;;;;;;7.03;3.42;;;;;;;16.62;19.03;99331.38;5092793;28;20044;-74
2022/02/14 09:42:54;;;;;;;8.82;4.22;;;;;;;16.49;19.02;99327.84;5091931;28;20058;-73
2022/02/14 09:45:22;;;;;;;8.13;3.88;;;;;;;17.05;18.25;99321.09;5075548;28;20252;-73
2022/02/14 09:47:55;;;;;;;7.10;3.55;;;;;;;17.75;17.83;99313.16;5092699;28;20048;-72
2022/02/14 09:50:22;;;;;;;5.80;4.07;;;;;;;16.48;18.40;99323.50;5076264;28;20139;-72
2022/02/14 09:52:48;;;;;;;9.80;4.43;;;;;;;16.13;19.28;99313.91;5059312;28;20032;-72
2022/02/14 09:55:14;;;;;;;7.97;4.05;;;;;;;17.00;18.63;99306.63;5042300;28;20040;-73
2022/02/14 09:57:39;;;;;;;11.60;6.45;;;;;;;16.67;18.70;99336.13;5075271;28;20263;-73
2022/02/14 10:00:06;;;;;;;6.97;3.85;;;;;;;16.04;19.39;99301.69;5110884;28;20043;-73
2022/02/14 10:02:32;;;;;;;5.45;4.10;;;;;;;16.61;18.75;99300.22;5091514;28;20445;-72
2022/02/14 10:05:10;;;;;;;6.25;4.00;;;;;;;17.45;18.00;99311.16;5092409;28;20051;-72
2022/02/14 10:07:44;;;;;;;5.70;3.60;;;;;;;17.13;18.55;99293.22;5091606;28;20059;-72
2022/02/14 10:10:15;;;;;;;7.32;4.45;;;;;;;16.75;18.92;99303.75;5075689;28;20371;-72
2022/02/14 10:12:43;;;;;;;10.93;4.13;;;;;;;16.42;19.24;99300.97;5090928;28;20044;-73
2022/02/14 10:15:10;;;;;;;7.50;4.07;;;;;;;16.81;18.49;99311.78;5075853;28;20043;-73
2022/02/14 10:17:41;;;;;;;9.25;4.05;;;;;;;18.38;17.48;99308.75;5091369;28;20043;-75
2022/02/14 10:20:08;;;;;;;6.88;3.92;;;;;;;19.31;16.53;99292.50;5058483;28;20098;-76
2022/02/14 10:23:00;;;;;;;8.02;4.45;;;;;;;18.88;16.71;99291.63;5058183;28;20072;-74
2022/02/14 10:25:36;;;;;;;6.47;4.00;;;;;;;19.51;16.28;99311.19;5075122;28;20129;-78
2022/02/14 10:28:25;;;;;;;7.15;4.35;;;;;;;20.34;15.42;99301.50;5091786;28;20047;-74
2022/02/14 10:31:07;;;;;;;7.88;4.20;;;;;;;19.84;15.25;99282.00;5041916;28;20044;-75
2022/02/14 10:33:50;;;;;;;8.80;4.88;;;;;;;19.19;16.50;99307.72;5091115;28;20093;-76
2022/02/14 10:36:31;;;;;;;8.85;4.60;;;;;;;18.63;16.96;99296.19;5075842;28;20092;-75
2022/02/14 10:38:58;;;;;;;6.15;4.35;;;;;;;18.77;16.99;99305.81;5091290;28;20048;-76
2022/02/14 10:41:27;;;;;;;6.05;4.30;;;;;;;18.31;17.32;99307.94;5073962;28;20143;-76
2022/02/14 10:44:03;;;;;;;7.80;4.53;;;;;;;18.63;16.90;99298.88;5075777;28;20039;-75
2022/02/14 10:46:29;;;;;;;6.88;4.50;;;;;;;17.61;17.55;99297.28;5093639;28;20039;-76
2022/02/14 10:48:56;;;;;;;9.32;5.10;;;;;;;18.33;17.18;99295.94;5060283;28;20036;-74
2022/02/14 10:51:22;;;;;;;8.52;4.70;;;;;;;17.96;17.38;99295.91;5075535;28;20071;-73
2022/02/14 10:53:49;;;;;;;10.65;4.85;;;;;;;18.72;16.83;99292.19;5058463;28;20168;-72
2022/02/14 10:56:18;;;;;;;7.65;4.22;;;;;;;18.79;16.58;99276.81;5075119;28;20078;-73
2022/02/14 10:58:47;;;;;;;7.72;4.70;;;;;;;18.18;17.38;99273.06;5063475;28;20050;-77
2022/02/14 11:01:15;;;;;;;7.88;5.10;;;;;;;18.53;17.07;99286.97;5054215;28;20567;-73
2022/02/14 11:03:42;;;;;;;9.10;4.80;;;;;;;18.98;16.82;99283.91;5070817;28;20144;-73
2022/02/14 11:06:10;;;;;;;7.95;5.03;;;;;;;18.77;16.72;99283.47;5088414;28;20139;-73
2022/02/14 11:08:38;;;;;;;6.30;4.50;;;;;;;16.82;18.38;99280.44;5088979;28;20086;-73
2022/02/14 11:11:05;;;;;;;7.13;4.78;;;;;;;15.85;19.61;99287.19;5054480;28;20135;-74
2022/02/14 11:13:32;;;;;;;9.60;5.53;;;;;;;16.07;19.58;99280.69;5070043;28;20169;-71
2022/02/14 11:15:59;;;;;;;8.20;4.78;;;;;;;16.96;18.73;99265.97;5089192;28;20040;-72
2022/02/14 11:18:34;;;;;;;8.50;4.70;;;;;;;17.77;18.12;99288.75;5053454;28;20044;-73
2022/02/14 11:21:00;;;;;;;12.18;5.13;;;;;;;16.82;18.44;99281.25;5069753;28;20115;-72
2022/02/14 11:23:30;;;;;;;9.60;5.15;;;;;;;16.60;19.54;99287.88;5073922;28;20039;-73
2022/02/14 11:26:20;;;;;;;6.20;4.60;;;;;;;17.43;17.84;99278.28;5090552;28;20047;-72
2022/02/14 11:29:13;;;;;;;8.10;4.97;;;;;;;18.16;17.73;99281.34;5053810;28;20093;-72
2022/02/14 11:31:39;;;;;;;9.27;5.63;;;;;;;15.02;20.29;99267.78;5037417;28;20054;-71
2022/02/14 11:34:08;;;;;;;10.98;5.35;;;;;;;15.55;20.45;99279.66;5070446;28;20044;-73
2022/02/14 11:36:37;;;;;;;11.98;5.18;;;;;;;16.78;19.41;99268.47;5070450;28;20079;-72
2022/02/14 11:39:05;;;;;;;8.93;5.40;;;;;;;16.97;19.03;99250.72;5069044;28;20825;-72